createdAt,value
2023-04-18T00:02:39.858Z,26.52
2023-04-18T00:05:47.954Z,29.15
2023-04-18T00:08:52.537Z,26.30
2023-04-18T00:11:56.815Z,27.25
2023-04-18T00:18:08.340Z,25.15
2023-04-18T00:21:13.856Z,18.58
2023-04-18T00:24:18.124Z,21.52
2023-04-18T00:27:22.360Z,25.25
2023-04-18T00:30:27.108Z,24.52
2023-04-18T00:33:31.524Z,24.13
2023-04-18T00:36:35.955Z,22.02
2023-04-18T00:39:39.996Z,21.65
2023-04-18T00:42:44.408Z,21.05
2023-04-18T00:45:48.767Z,25.58
2023-04-18T00:48:53.421Z,26.33
2023-04-18T00:51:57.667Z,24.23
2023-04-18T00:55:05.928Z,27.23
2023-04-18T00:58:10.613Z,23.40
2023-04-18T01:01:15.195Z,24.45
2023-04-18T01:04:19.644Z,21.23
2023-04-18T01:07:25.500Z,23.55
2023-04-18T01:10:31.110Z,25.63
2023-04-18T01:13:35.536Z,20.38
2023-04-18T01:16:40.017Z,22.60
2023-04-18T01:19:44.494Z,24.80
2023-04-18T01:22:48.519Z,22.70
2023-04-18T01:25:52.753Z,23.20
2023-04-18T01:28:57.025Z,20.70
2023-04-18T01:32:02.475Z,19.13
2023-04-18T01:35:07.463Z,18.38
2023-04-18T01:38:11.869Z,22.17
2023-04-18T01:41:16.246Z,20.10
2023-04-18T01:44:20.418Z,19.33
2023-04-18T01:47:24.573Z,18.58
2023-04-18T01:50:29.330Z,21.10
2023-04-18T01:53:33.546Z,20.08
2023-04-18T01:56:37.802Z,19.92
2023-04-18T01:59:42.076Z,19.55
2023-04-18T02:02:46.447Z,19.05
2023-04-18T02:05:51.699Z,20.58
2023-04-18T02:08:56.113Z,20.42
2023-04-18T02:12:02.705Z,22.98
2023-04-18T02:15:07.846Z,19.60
2023-04-18T02:18:12.612Z,22.45
2023-04-18T02:21:16.739Z,26.60
2023-04-18T02:24:20.882Z,22.63
2023-04-18T02:27:25.341Z,23.48
2023-04-18T02:44:52.564Z,29.50
2023-04-18T02:47:57.084Z,28.90
2023-04-18T02:51:07.765Z,28.27
2023-04-18T02:54:12.626Z,24.13
2023-04-18T02:57:17.478Z,28.50
2023-04-18T03:00:21.776Z,30.50
2023-04-18T03:03:26.144Z,25.33
2023-04-18T03:06:31.720Z,27.45
2023-04-18T03:09:35.971Z,26.08
2023-04-18T03:12:40.518Z,25.73
2023-04-18T03:15:44.931Z,28.52
2023-04-18T03:18:49.102Z,24.67
2023-04-18T03:21:53.448Z,26.13
2023-04-18T03:24:57.798Z,32.20
2023-04-18T03:28:02.129Z,26.27
2023-04-18T03:31:07.066Z,24.95
2023-04-18T03:34:11.617Z,27.55
2023-04-18T03:37:16.035Z,26.73
2023-04-18T03:40:20.648Z,26.23
2023-04-18T03:43:24.864Z,26.70
2023-04-18T03:46:29.735Z,27.52
2023-04-18T03:49:34.153Z,29.63
2023-04-18T03:52:38.395Z,29.52
2023-04-18T03:55:43.481Z,27.33
2023-04-18T03:58:48.126Z,27.15
2023-04-18T04:01:52.565Z,30.30
2023-04-18T04:04:57.846Z,30.27
2023-04-18T04:08:02.290Z,31.90
2023-04-18T04:11:06.429Z,32.42
2023-04-18T04:14:11.056Z,29.67
2023-04-18T04:17:15.974Z,30.55
2023-04-18T04:20:24.173Z,28.08
2023-04-18T04:23:28.860Z,24.33
2023-04-18T04:26:35.650Z,33.67
2023-04-18T04:29:41.209Z,25.92
2023-04-18T04:32:45.889Z,27.08
2023-04-18T04:35:50.784Z,29.95
2023-04-18T04:38:55.263Z,27.27
2023-04-18T04:42:04.391Z,30.35
2023-04-18T04:45:10.420Z,29.17
2023-04-18T04:48:14.793Z,25.60
2023-04-18T04:51:19.024Z,32.30
2023-04-18T04:54:23.397Z,25.55
2023-04-18T04:57:27.854Z,24.15
2023-04-18T05:00:32.073Z,26.23
2023-04-18T05:03:36.803Z,21.80
2023-04-18T05:06:41.379Z,24.25
2023-04-18T05:09:45.581Z,31.20
2023-04-18T05:12:49.830Z,18.83
2023-04-18T05:15:54.100Z,22.63
2023-04-18T05:18:58.555Z,27.65
2023-04-18T05:22:03.134Z,20.92
2023-04-18T05:25:08.317Z,24.42
2023-04-18T05:28:12.447Z,18.33
2023-04-18T05:31:16.904Z,16.50
2023-04-18T05:34:21.613Z,21.20
2023-04-18T05:37:26.129Z,17.52
2023-04-18T05:40:30.968Z,18.95
2023-04-18T05:43:35.648Z,20.33
2023-04-18T05:46:40.142Z,18.48
2023-04-18T05:49:44.885Z,16.27
2023-04-18T05:52:49.293Z,16.52
2023-04-18T05:55:55.102Z,14.90
2023-04-18T05:58:59.304Z,21.00
2023-04-18T06:02:03.721Z,17.90
2023-04-18T06:05:09.362Z,23.35
2023-04-18T06:08:14.242Z,16.88
2023-04-18T06:11:21.182Z,15.85
2023-04-18T06:14:26.116Z,15.85
2023-04-18T06:17:30.965Z,14.15
2023-04-18T06:20:35.343Z,20.10
2023-04-18T06:23:39.546Z,18.83
2023-04-18T06:26:44.244Z,21.50
2023-04-18T06:29:49.056Z,15.13
2023-04-18T06:32:53.735Z,14.57
2023-04-18T06:35:58.539Z,20.42
2023-04-18T06:39:02.714Z,17.75
2023-04-18T06:42:06.936Z,15.50
2023-04-18T06:45:12.143Z,16.85
2023-04-18T06:48:16.852Z,19.05
2023-04-18T06:51:21.044Z,14.73
2023-04-18T06:57:29.821Z,17.17
2023-04-18T07:00:34.351Z,17.60
2023-04-18T07:03:38.994Z,14.25
2023-04-18T07:06:43.694Z,21.55
2023-04-18T07:09:49.120Z,15.88
2023-04-18T07:12:53.385Z,17.38
2023-04-18T07:15:57.709Z,19.02
2023-04-18T07:19:02.638Z,20.90
2023-04-18T07:22:07.050Z,17.60
2023-04-18T07:25:11.523Z,20.35
2023-04-18T07:28:16.589Z,23.25
2023-04-18T07:31:20.733Z,17.08
2023-04-18T07:34:29.586Z,16.60
2023-04-18T07:37:33.905Z,20.67
2023-04-18T07:40:38.717Z,15.30
2023-04-18T07:43:44.818Z,16.83
2023-04-18T07:46:49.689Z,15.52
2023-04-18T07:49:54.668Z,17.55
2023-04-18T07:52:59.011Z,15.73
2023-04-18T07:56:03.396Z,15.65
2023-04-18T07:59:07.909Z,25.75
2023-04-18T08:02:12.589Z,19.40
2023-04-18T08:05:19.819Z,14.48
2023-04-18T08:08:24.160Z,18.60
2023-04-18T08:14:32.671Z,20.35
2023-04-18T08:17:38.870Z,17.63
2023-04-18T08:20:43.772Z,19.30
2023-04-18T08:23:48.190Z,16.92
2023-04-18T08:26:52.613Z,23.15
2023-04-18T08:29:58.095Z,19.35
2023-04-18T08:33:03.157Z,18.33
2023-04-18T08:36:07.964Z,22.73
2023-04-18T08:39:12.742Z,18.17
2023-04-18T08:42:21.469Z,18.88
2023-04-18T08:45:26.321Z,16.85
2023-04-18T08:48:31.002Z,22.00
2023-04-18T08:51:39.590Z,17.77
2023-04-18T08:54:46.647Z,17.20
2023-04-18T08:57:54.172Z,16.83
2023-04-18T09:00:58.900Z,18.17
2023-04-18T09:04:03.211Z,17.05
2023-04-18T09:07:12.157Z,19.67
2023-04-18T09:10:27.535Z,18.10
2023-04-18T09:13:47.425Z,14.82
2023-04-18T09:16:51.885Z,17.00
2023-04-18T09:19:56.707Z,17.38
2023-04-18T09:23:03.889Z,16.67
2023-04-18T09:26:08.152Z,17.40
2023-04-18T09:29:13.511Z,16.90
2023-04-18T09:32:25.139Z,19.40
2023-04-18T09:35:30.004Z,16.75
2023-04-18T09:38:41.409Z,22.88
2023-04-18T09:42:00.725Z,18.85
2023-04-18T09:45:08.278Z,14.35
2023-04-18T09:48:12.581Z,18.42
2023-04-18T09:51:18.044Z,16.98
2023-04-18T09:54:25.066Z,18.50
2023-04-18T09:57:31.363Z,20.77
2023-04-18T10:00:38.247Z,17.38
2023-04-18T10:03:48.486Z,15.30
2023-04-18T10:06:54.248Z,14.90
2023-04-18T10:09:58.455Z,22.25
2023-04-18T10:13:05.373Z,15.05
2023-04-18T10:16:11.050Z,14.10
2023-04-18T10:19:29.551Z,15.25
2023-04-18T10:22:35.475Z,13.90
2023-04-18T10:25:39.948Z,16.27
2023-04-18T10:28:56.504Z,11.98
2023-04-18T10:32:07.016Z,13.95
2023-04-18T10:35:13.569Z,11.68
2023-04-18T10:38:18.214Z,13.43
2023-04-18T10:41:27.602Z,11.52
2023-04-18T10:44:32.156Z,14.38
2023-04-18T10:47:36.684Z,12.10
2023-04-18T10:51:34.750Z,11.27
2023-04-18T10:54:51.970Z,9.82
2023-04-18T10:57:58.544Z,11.15
2023-04-18T11:01:04.654Z,13.70
2023-04-18T11:04:14.003Z,11.65
2023-04-18T11:07:19.385Z,8.98
2023-04-18T11:10:27.103Z,10.60
2023-04-18T11:13:31.908Z,9.07
2023-04-18T11:16:36.403Z,8.73
2023-04-18T11:19:41.174Z,8.77
2023-04-18T11:22:47.715Z,12.20
2023-04-18T11:25:56.381Z,13.63
2023-04-18T11:29:00.792Z,10.10
2023-04-18T11:32:09.480Z,7.80
2023-04-18T11:35:16.076Z,7.80
2023-04-18T11:38:21.699Z,7.97
2023-04-18T11:41:29.707Z,11.63
2023-04-18T11:44:36.335Z,8.80
2023-04-18T11:47:43.220Z,10.05
2023-04-18T11:50:47.836Z,7.25
2023-04-18T11:53:51.996Z,6.70
2023-04-18T11:56:57.549Z,5.75
2023-04-18T12:00:02.153Z,7.53
2023-04-18T12:03:15.668Z,5.18
2023-04-18T12:06:20.372Z,4.72
2023-04-18T12:09:25.228Z,5.40
2023-04-18T12:12:29.835Z,6.13
2023-04-18T12:15:43.490Z,6.32
2023-04-18T12:18:48.224Z,7.10
2023-04-18T12:22:01.990Z,6.78
2023-04-18T12:25:24.330Z,5.47
2023-04-18T12:28:31.211Z,5.40
2023-04-18T12:31:35.771Z,6.60
2023-04-18T12:34:40.320Z,6.13
2023-04-18T12:37:48.272Z,6.70
2023-04-18T12:40:52.725Z,7.35
2023-04-18T12:43:56.929Z,6.85
2023-04-18T12:53:15.871Z,6.38
2023-04-18T12:56:21.052Z,6.65
2023-04-18T12:59:25.448Z,6.72
2023-04-18T13:02:30.094Z,6.53
2023-04-18T13:05:35.714Z,7.13
2023-04-18T13:08:40.179Z,6.38
2023-04-18T13:14:48.591Z,10.32
2023-04-18T13:17:52.918Z,9.65
2023-04-18T13:20:57.215Z,7.35
2023-04-18T13:24:02.971Z,14.13
2023-04-18T13:27:10.539Z,12.60
2023-04-18T13:30:15.496Z,8.43
2023-04-18T13:33:20.247Z,6.97
2023-04-18T13:36:24.546Z,7.13
2023-04-18T13:39:32.202Z,8.85
2023-04-18T13:42:38.608Z,11.93
2023-04-18T13:45:43.342Z,9.30
2023-04-18T13:48:47.783Z,6.20
2023-04-18T13:51:57.776Z,9.82
2023-04-18T13:55:03.706Z,9.15
2023-04-18T13:58:09.791Z,8.77
2023-04-18T14:01:16.288Z,7.72
2023-04-18T14:04:23.058Z,8.55
2023-04-18T14:07:27.716Z,9.02
2023-04-18T14:10:32.037Z,7.05
2023-04-18T14:13:36.286Z,8.57
2023-04-18T14:16:40.909Z,7.60
2023-04-18T14:19:45.211Z,8.02
2023-04-18T14:22:52.376Z,9.77
2023-04-18T14:25:57.701Z,6.85
2023-04-18T14:29:03.957Z,5.80
2023-04-18T14:32:08.499Z,6.40
2023-04-18T14:35:12.969Z,7.35
2023-04-18T14:38:17.554Z,5.60
2023-04-18T14:41:22.616Z,5.85
2023-04-18T14:44:26.801Z,5.82
2023-04-18T14:47:34.206Z,5.95
2023-04-18T14:50:38.723Z,6.20
2023-04-18T14:53:44.178Z,5.32
2023-04-18T14:56:48.314Z,6.47
2023-04-18T14:59:54.415Z,4.90
2023-04-18T15:02:59.180Z,6.93
2023-04-18T15:06:04.284Z,5.97
2023-04-18T15:09:08.704Z,8.65
2023-04-18T15:12:13.012Z,9.60
2023-04-18T15:15:18.888Z,7.93
2023-04-18T15:18:23.777Z,7.88
2023-04-18T15:21:28.428Z,8.18
2023-04-18T15:24:33.085Z,5.32
2023-04-18T15:27:36.993Z,7.90
2023-04-18T15:30:41.493Z,4.93
2023-04-18T15:33:46.820Z,6.40
2023-04-18T15:36:51.431Z,8.38
2023-04-18T15:39:57.032Z,4.97
2023-04-18T15:43:02.643Z,5.28
2023-04-18T15:46:07.171Z,6.93
2023-04-18T15:49:12.237Z,4.78
2023-04-18T15:52:42.656Z,3.40
2023-04-18T15:55:53.957Z,5.95
2023-04-18T15:59:02.920Z,5.32
2023-04-18T16:02:09.512Z,6.20
2023-04-18T16:05:15.386Z,4.95
2023-04-18T16:08:20.861Z,4.15
2023-04-18T16:11:28.976Z,4.22
2023-04-18T16:14:33.702Z,2.95
2023-04-18T16:17:38.339Z,4.15
2023-04-18T16:20:42.782Z,3.30
2023-04-18T16:23:47.282Z,2.80
2023-04-18T16:26:53.534Z,3.67
2023-04-18T16:29:57.979Z,6.60
2023-04-18T16:33:03.910Z,3.33
2023-04-18T16:36:09.812Z,3.08
2023-04-18T16:39:15.815Z,2.70
2023-04-18T16:42:19.939Z,4.47
2023-04-18T16:45:24.602Z,5.03
2023-04-18T16:48:29.721Z,3.63
2023-04-18T16:51:37.103Z,3.45
2023-04-18T16:54:41.449Z,4.30
2023-04-18T16:57:45.711Z,3.38
2023-04-18T17:00:49.964Z,3.22
2023-04-18T17:03:54.526Z,2.97
2023-04-18T17:07:00.612Z,3.17
2023-04-18T17:10:09.935Z,5.43
2023-04-18T17:13:15.021Z,5.07
2023-04-18T17:16:19.374Z,4.15
2023-04-18T17:19:23.985Z,4.60
2023-04-18T17:22:29.217Z,4.80
2023-04-18T17:25:33.489Z,5.10
2023-04-18T17:28:37.810Z,4.22
2023-04-18T17:31:42.129Z,5.03
2023-04-18T17:34:49.011Z,7.78
2023-04-18T17:37:53.641Z,6.55
2023-04-18T17:41:02.205Z,5.13
2023-04-18T17:44:10.442Z,5.20
2023-04-18T17:47:14.623Z,4.30
2023-04-18T17:50:19.283Z,5.13
2023-04-18T17:53:23.697Z,7.57
2023-04-18T17:56:30.368Z,5.20
2023-04-18T17:59:37.588Z,7.50
2023-04-18T18:02:44.548Z,5.57
2023-04-18T18:05:50.786Z,8.73
2023-04-18T18:08:55.940Z,8.32
2023-04-18T18:12:00.212Z,6.85
2023-04-18T18:15:08.422Z,8.63
2023-04-18T18:18:12.657Z,9.23
2023-04-18T18:21:17.899Z,9.35
2023-04-18T18:24:22.424Z,7.78
2023-04-18T18:27:26.744Z,9.80
2023-04-18T18:30:31.226Z,7.50
2023-04-18T18:33:42.622Z,7.63
2023-04-18T18:36:47.443Z,8.07
2023-04-18T18:39:56.276Z,7.88
2023-04-18T18:43:05.937Z,9.02
2023-04-18T18:46:20.540Z,9.18
2023-04-18T18:49:24.976Z,12.98
2023-04-18T18:52:30.849Z,9.82
2023-04-18T18:55:35.528Z,11.32
2023-04-18T18:58:40.431Z,6.60
2023-04-18T19:01:44.629Z,8.32
2023-04-18T19:04:49.001Z,10.30
2023-04-18T19:07:53.854Z,11.40
2023-04-18T19:10:58.141Z,10.18
2023-04-18T19:14:04.064Z,10.55
2023-04-18T19:17:08.577Z,12.50
2023-04-18T19:20:13.415Z,10.85
2023-04-18T19:23:19.263Z,11.25
2023-04-18T19:26:23.426Z,14.93
2023-04-18T19:29:27.643Z,12.38
2023-04-18T19:32:32.597Z,12.40
2023-04-18T19:35:37.996Z,17.75
2023-04-18T19:38:42.639Z,11.00
2023-04-18T19:51:04.690Z,11.02
2023-04-18T19:54:09.269Z,10.95
2023-04-18T19:57:13.573Z,13.45
2023-04-18T20:00:19.864Z,11.75
2023-04-18T20:03:24.300Z,13.55
2023-04-18T20:06:32.325Z,12.68
2023-04-18T20:09:37.673Z,14.07
2023-04-18T20:12:41.926Z,10.38
2023-04-18T20:15:47.377Z,12.57
2023-04-18T20:18:54.187Z,15.45
2023-04-18T20:21:59.629Z,12.55
2023-04-18T20:25:04.101Z,15.02
2023-04-18T20:28:08.761Z,12.25
2023-04-18T20:31:13.274Z,15.88
2023-04-18T20:34:18.949Z,11.70
2023-04-18T20:37:24.533Z,14.45
2023-04-18T20:40:29.279Z,12.30
2023-04-18T20:43:37.265Z,13.25
2023-04-18T20:46:42.126Z,12.00
2023-04-18T20:49:46.994Z,12.43
2023-04-18T20:52:52.011Z,13.45
2023-04-18T20:55:56.644Z,12.15
2023-04-18T20:59:02.446Z,10.73
2023-04-18T21:02:08.458Z,13.18
2023-04-18T21:05:16.800Z,10.07
2023-04-18T21:08:22.070Z,9.77
2023-04-18T21:11:26.858Z,9.35
2023-04-18T21:14:32.578Z,15.45
2023-04-18T21:17:36.956Z,14.05
2023-04-18T21:20:42.027Z,11.30
2023-04-18T21:23:47.909Z,10.07
2023-04-18T21:26:53.108Z,9.95
2023-04-18T21:29:59.357Z,11.38
2023-04-18T21:33:05.896Z,11.23
2023-04-18T21:36:12.925Z,8.55
2023-04-18T21:39:17.852Z,13.65
2023-04-18T21:42:22.538Z,9.15
2023-04-18T21:45:26.953Z,10.52
2023-04-18T21:48:32.702Z,7.95
2023-04-18T21:51:37.110Z,8.30
2023-04-18T21:54:43.910Z,11.27
2023-04-18T21:57:48.483Z,6.18
2023-04-18T22:00:52.919Z,6.40
2023-04-18T22:03:58.263Z,6.97
2023-04-18T22:07:02.757Z,6.70
2023-04-18T22:10:08.964Z,7.97
2023-04-18T22:13:14.642Z,8.73
2023-04-18T22:16:22.269Z,9.38
2023-04-18T22:19:29.730Z,10.65
2023-04-18T22:22:36.002Z,7.32
2023-04-18T22:25:42.471Z,9.30
2023-04-18T22:28:48.422Z,7.80
2023-04-18T22:31:53.521Z,9.13
2023-04-18T22:34:59.121Z,8.38
2023-04-18T22:38:03.844Z,8.07
2023-04-18T22:41:08.885Z,10.00
2023-04-18T22:44:14.344Z,7.82
2023-04-18T22:47:19.441Z,6.93
2023-04-18T22:50:25.111Z,9.20
2023-04-18T22:53:32.223Z,10.02
2023-04-18T22:56:37.078Z,8.32
2023-04-18T22:59:45.291Z,7.90
2023-04-18T23:02:50.098Z,10.57
2023-04-18T23:05:56.465Z,7.68
2023-04-18T23:09:04.037Z,12.98
2023-04-18T23:12:10.107Z,10.10
2023-04-18T23:15:16.438Z,8.43
2023-04-18T23:18:23.153Z,11.30
2023-04-18T23:21:29.211Z,10.07
2023-04-18T23:24:34.493Z,9.77
2023-04-18T23:27:39.681Z,12.40
2023-04-18T23:30:46.069Z,10.05
2023-04-18T23:33:51.157Z,7.05
2023-04-18T23:36:56.124Z,8.48
2023-04-18T23:40:03.034Z,13.20
2023-04-18T23:43:10.200Z,10.90
2023-04-18T23:46:16.378Z,23.50
2023-04-18T23:49:22.150Z,13.15
2023-04-18T23:52:26.842Z,9.35
2023-04-18T23:55:31.826Z,8.68
2023-04-18T23:58:36.916Z,9.38
